Time;durP1;ratioP1;P1;durP2;ratioP2;P2;SDS_P1;SDS_P2;PMS_P1;PMS_P2;Temp;Humidity;BMP_temperature;BMP_pressure;BME280_temperature;BME280_humidity;BME280_pressure;Samples;Min_cycle;Max_cycle;Signal;HPM_P1;HPM_P2
2023/03/22 00:02:18;;;;;;;1.77;1.42;;;;;;;20.17;51.86;96611.38;10371744;28;20402;-75
2023/03/22 00:07:39;;;;;;;2.58;1.60;;;;;;;20.15;51.86;96609.00;10358080;28;20069;-75
2023/03/22 00:12:59;;;;;;;1.85;1.40;;;;;;;20.15;52.02;96609.00;10386487;28;20053;-75
2023/03/22 00:18:19;;;;;;;1.85;1.40;;;;;;;20.14;51.87;96607.38;10350119;28;20042;-75
2023/03/22 00:23:38;;;;;;;1.77;1.33;;;;;;;20.13;51.82;96610.41;10378818;28;20541;-76
2023/03/22 00:28:58;;;;;;;1.48;1.35;;;;;;;20.11;52.00;96596.44;10367662;28;20060;-75
2023/03/22 00:34:17;;;;;;;2.30;1.25;;;;;;;20.10;51.88;96590.25;10378546;28;20042;-75
2023/03/22 00:39:36;;;;;;;1.55;1.42;;;;;;;20.09;52.00;96582.47;10378284;28;20075;-75
2023/03/22 00:44:56;;;;;;;1.80;1.40;;;;;;;20.08;51.92;96570.09;10378433;28;20399;-76
2023/03/22 00:50:15;;;;;;;1.80;1.50;;;;;;;20.07;52.02;96576.59;10392706;28;20045;-75
2023/03/22 00:55:35;;;;;;;2.00;1.30;;;;;;;20.07;51.88;96566.59;10363934;28;20056;-75
2023/03/22 01:00:55;;;;;;;1.52;1.35;;;;;;;20.06;51.93;96556.09;10363759;28;20116;-75
2023/03/22 01:06:15;;;;;;;2.15;1.23;;;;;;;20.05;51.95;96557.22;10350131;28;20042;-75
2023/03/22 01:11:35;;;;;;;1.65;1.25;;;;;;;20.04;51.85;96566.47;10392093;28;20042;-76
2023/03/22 01:16:56;;;;;;;1.58;1.35;;;;;;;20.03;51.80;96562.16;10377028;28;20050;-76
2023/03/22 01:22:15;;;;;;;1.50;1.40;;;;;;;20.02;51.67;96563.31;10363064;28;20042;-75
2023/03/22 01:27:35;;;;;;;1.70;1.30;;;;;;;20.00;51.77;96560.16;10354668;28;20495;-75
2023/03/22 01:32:55;;;;;;;1.73;1.38;;;;;;;20.00;51.81;96562.84;10362542;28;20081;-75
2023/03/22 01:38:14;;;;;;;1.75;1.35;;;;;;;19.98;51.78;96548.88;10376071;28;20092;-75
2023/03/22 01:43:43;;;;;;;1.15;1.02;;;;;;;19.98;51.64;96546.16;10375800;28;20407;-75
2023/03/22 01:49:05;;;;;;;1.30;1.20;;;;;;;19.95;51.78;96559.22;10361922;28;20037;-75
2023/03/22 01:54:35;;;;;;;1.40;1.17;;;;;;;19.95;51.85;96561.13;10375517;28;20046;-75
2023/03/22 02:00:17;;;;;;;2.20;1.30;;;;;;;19.94;51.68;96557.63;10363118;28;20046;-75
2023/03/22 02:05:57;;;;;;;1.27;1.17;;;;;;;19.93;51.82;96534.44;10368088;28;20096;-75
2023/03/22 02:11:32;;;;;;;1.45;1.20;;;;;;;19.93;51.71;96539.84;10347836;28;20053;-75
2023/03/22 02:17:06;;;;;;;1.30;1.13;;;;;;;19.90;51.64;96542.41;10361171;28;20064;-75
2023/03/22 02:23:07;;;;;;;1.10;1.00;;;;;;;19.90;51.58;96520.78;10361506;28;20505;-75
2023/03/22 02:28:54;;;;;;;1.38;1.20;;;;;;;19.90;51.72;96520.78;10333663;28;20051;-75
2023/03/22 02:34:43;;;;;;;1.40;1.30;;;;;;;19.88;51.65;96525.75;10333427;28;20042;-75
2023/03/22 02:40:07;;;;;;;;;;;;;;;19.86;51.83;96525.28;10347573;28;20046;-73
2023/03/22 02:45:43;;;;;;;1.17;1.08;;;;;;;19.87;51.59;96532.25;10347764;28;19921;-72
2023/03/22 02:51:10;;;;;;;1.73;1.20;;;;;;;19.85;51.48;96534.50;10333130;28;20085;-72
2023/03/22 02:56:34;;;;;;;1.35;1.25;;;;;;;19.85;51.67;96531.81;10346498;28;20509;-72
2023/03/22 03:01:57;;;;;;;0.98;0.98;;;;;;;19.83;51.52;96531.34;10332891;28;20069;-72
2023/03/22 03:07:25;;;;;;;1.48;1.10;;;;;;;19.82;51.49;96532.47;10346106;28;20042;-72
2023/03/22 03:12:45;;;;;;;2.25;1.25;;;;;;;19.81;51.67;96534.38;10332431;28;20427;-72
2023/03/22 03:18:18;;;;;;;1.30;1.20;;;;;;;19.79;51.64;96528.50;10332327;28;20034;-72
2023/03/22 03:23:41;;;;;;;1.25;1.15;;;;;;;19.77;51.42;96528.06;10345837;28;20388;-72
2023/03/22 03:29:07;;;;;;;1.10;1.00;;;;;;;19.78;51.24;96535.06;10334465;28;20077;-72
2023/03/22 03:34:33;;;;;;;1.60;1.10;;;;;;;19.76;51.36;96542.69;10345459;28;20415;-72
2023/03/22 03:40:08;;;;;;;1.20;0.98;;;;;;;19.76;51.52;96548.09;10345470;28;20113;-72
2023/03/22 03:45:28;;;;;;;1.40;1.00;;;;;;;19.73;51.42;96543.34;10345223;28;20112;-72
2023/03/22 03:50:51;;;;;;;2.58;1.10;;;;;;;19.74;51.33;96550.34;10333815;28;20042;-72
2023/03/22 03:56:11;;;;;;;1.10;1.00;;;;;;;19.73;51.42;96546.84;10339486;28;20053;-72
2023/03/22 04:01:36;;;;;;;1.00;0.90;;;;;;;19.72;51.24;96552.59;10326456;28;20376;-72
2023/03/22 04:07:06;;;;;;;0.90;0.90;;;;;;;19.70;51.38;96549.41;10326841;28;20438;-72
2023/03/22 04:12:28;;;;;;;1.33;1.00;;;;;;;19.69;51.22;96545.09;10325764;28;20047;-72
2023/03/22 04:18:10;;;;;;;1.17;1.08;;;;;;;19.68;51.11;96557.84;10341483;28;20057;-74
2023/03/22 04:23:32;;;;;;;1.13;0.90;;;;;;;19.68;51.20;96562.44;10325379;28;20042;-73
2023/03/22 04:28:51;;;;;;;1.10;1.00;;;;;;;19.65;51.07;96555.78;10327747;28;20050;-72
2023/03/22 04:34:12;;;;;;;1.27;1.08;;;;;;;19.65;51.18;96558.47;10351944;28;20049;-72
2023/03/22 04:39:42;;;;;;;0.90;0.90;;;;;;;19.64;51.12;96550.69;10339409;28;20038;-72
2023/03/22 04:45:21;;;;;;;1.15;1.02;;;;;;;19.63;51.01;96552.63;10351497;28;20047;-75
2023/03/22 04:50:47;;;;;;;0.90;0.90;;;;;;;19.62;51.08;96552.94;10338371;28;20042;-75
2023/03/22 04:56:10;;;;;;;0.98;0.90;;;;;;;19.61;50.97;96546.75;10337105;28;20049;-75
2023/03/22 05:01:30;;;;;;;0.95;0.90;;;;;;;19.59;51.12;96538.19;10335838;28;20046;-74
2023/03/22 05:07:00;;;;;;;0.90;0.90;;;;;;;19.59;51.19;96540.91;10338328;28;20057;-75
2023/03/22 05:12:30;;;;;;;0.80;0.80;;;;;;;19.59;51.02;96542.81;10325562;28;20108;-74
2023/03/22 05:18:04;;;;;;;1.20;1.10;;;;;;;19.58;51.05;96546.63;10339173;28;20046;-75
2023/03/22 05:23:25;;;;;;;1.23;1.13;;;;;;;19.58;51.21;96546.63;10322711;28;20042;-75
2023/03/22 05:28:48;;;;;;;1.15;1.05;;;;;;;19.58;51.11;96546.63;10324828;28;20054;-73
2023/03/22 05:34:19;;;;;;;1.20;1.00;;;;;;;19.59;51.27;96551.69;10337273;28;20050;-74
2023/03/22 05:39:39;;;;;;;0.88;0.82;;;;;;;19.59;51.47;96549.00;10335857;28;20046;-75
2023/03/22 05:44:59;;;;;;;2.03;1.08;;;;;;;19.61;51.49;96548.69;10335460;28;20057;-75
2023/03/22 05:50:20;;;;;;;1.00;1.00;;;;;;;19.61;51.67;96546.75;10348934;28;20054;-75
2023/03/22 05:55:41;;;;;;;1.17;1.00;;;;;;;19.62;51.33;96542.13;10335048;28;20490;-75
2023/03/22 06:01:06;;;;;;;1.10;1.00;;;;;;;19.63;51.02;96549.91;10334800;28;20039;-76
2023/03/22 06:06:32;;;;;;;1.30;1.05;;;;;;;19.63;51.14;96554.53;10335573;28;20104;-76
2023/03/22 06:12:06;;;;;;;1.50;0.90;;;;;;;19.65;51.07;96560.41;10322901;28;20053;-75
2023/03/22 06:17:26;;;;;;;1.40;1.30;;;;;;;19.66;51.05;96564.69;10347700;28;20177;-75
2023/03/22 06:22:46;;;;;;;1.13;1.02;;;;;;;19.67;51.00;96560.88;10320431;28;20038;-75
2023/03/22 06:28:06;;;;;;;1.10;1.00;;;;;;;19.69;51.04;96564.03;10364700;28;20046;-72
2023/03/22 06:33:25;;;;;;;1.10;1.00;;;;;;;19.71;51.59;96559.06;10373854;28;20482;-73
2023/03/22 06:38:52;;;;;;;1.20;1.08;;;;;;;19.73;51.43;96556.88;10348151;28;20042;-72
2023/03/22 06:44:13;;;;;;;1.48;0.90;;;;;;;19.76;51.25;96561.63;10360800;28;20069;-73
2023/03/22 06:49:44;;;;;;;0.90;0.90;;;;;;;19.77;51.28;96557.78;10363093;28;20100;-74
2023/03/22 06:55:10;;;;;;;1.08;0.98;;;;;;;19.81;51.19;96564.09;10360343;28;20045;-74
2023/03/22 07:00:31;;;;;;;1.20;1.10;;;;;;;19.82;51.21;96559.50;10373193;28;20501;-74
2023/03/22 07:05:51;;;;;;;2.08;0.88;;;;;;;19.87;51.05;96570.09;10372968;28;20049;-74
2023/03/22 07:11:11;;;;;;;2.20;0.90;;;;;;;19.89;51.09;96563.22;10359060;28;20045;-74
2023/03/22 07:16:31;;;;;;;6.72;0.90;;;;;;;19.91;51.19;96565.63;10372778;28;20103;-73
2023/03/22 07:21:53;;;;;;;1.65;1.10;;;;;;;19.93;51.12;96566.06;10359052;28;20053;-73
2023/03/22 07:27:14;;;;;;;1.90;1.00;;;;;;;19.95;50.93;96556.53;10365270;28;20050;-74
2023/03/22 07:32:34;;;;;;;1.25;1.05;;;;;;;19.99;51.12;96561.25;10358573;28;20080;-74
2023/03/22 07:37:58;;;;;;;4.93;1.17;;;;;;;20.02;51.00;96560.59;10359142;28;20045;-72
2023/03/22 07:43:23;;;;;;;3.28;1.20;;;;;;;20.03;50.63;96557.56;10358839;28;20038;-72
2023/03/22 07:48:57;;;;;;;5.60;1.98;;;;;;;20.05;50.34;96551.81;10360162;28;20042;-72
2023/03/22 07:54:35;;;;;;;6.90;2.28;;;;;;;20.09;50.22;96556.22;10374884;28;20050;-72
2023/03/22 07:59:58;;;;;;;9.15;2.67;;;;;;;20.10;50.14;96551.59;10358335;28;20544;-72
2023/03/22 08:05:24;;;;;;;6.82;2.45;;;;;;;20.13;50.15;96559.03;10372185;28;20038;-72
2023/03/22 08:10:50;;;;;;;7.30;2.83;;;;;;;20.17;50.27;96559.97;10358860;28;20042;-72
2023/03/22 08:16:10;;;;;;;7.38;2.78;;;;;;;20.20;50.21;96551.19;10371578;28;20104;-72
2023/03/22 08:21:30;;;;;;;9.00;3.00;;;;;;;20.21;50.35;96550.06;10371315;28;20046;-72
2023/03/22 08:26:50;;;;;;;6.32;2.88;;;;;;;20.24;50.22;96541.25;10338891;28;20062;-72
2023/03/22 08:32:20;;;;;;;6.82;2.50;;;;;;;20.26;50.26;96539.00;10346832;28;20053;-72
2023/03/22 08:37:40;;;;;;;7.53;2.70;;;;;;;20.27;50.21;96535.19;10374375;28;20042;-72
2023/03/22 08:43:01;;;;;;;8.20;3.20;;;;;;;20.30;50.38;96539.94;10364791;28;20053;-72
2023/03/22 08:48:22;;;;;;;6.40;3.22;;;;;;;20.31;50.35;96535.31;10364162;28;20053;-72
2023/03/22 08:53:59;;;;;;;7.10;2.90;;;;;;;20.33;50.52;96535.78;10366090;28;20052;-72
2023/03/22 08:59:37;;;;;;;6.82;2.70;;;;;;;20.35;50.53;96537.00;10392598;28;20437;-72
2023/03/22 09:05:16;;;;;;;7.88;2.80;;;;;;;20.37;50.61;96533.97;10366466;28;20048;-72
2023/03/22 09:10:38;;;;;;;6.63;2.42;;;;;;;20.38;50.63;96530.13;10363652;28;20104;-72
2023/03/22 09:15:59;;;;;;;6.90;2.72;;;;;;;20.39;50.73;96523.63;10377095;28;20050;-72
2023/03/22 09:21:22;;;;;;;5.45;2.50;;;;;;;20.39;50.61;96520.13;10363401;28;20053;-72
2023/03/22 09:27:02;;;;;;;6.50;2.60;;;;;;;20.40;50.66;96514.34;10385585;28;20056;-72
2023/03/22 09:32:22;;;;;;;6.13;2.80;;;;;;;20.41;50.71;96507.84;10363079;28;20050;-72
2023/03/22 09:37:52;;;;;;;4.40;2.33;;;;;;;20.42;50.65;96503.19;10363507;28;20070;-72
2023/03/22 09:43:14;;;;;;;6.25;2.33;;;;;;;20.42;50.67;96512.09;10363151;28;20042;-72
2023/03/22 09:48:36;;;;;;;6.15;2.33;;;;;;;20.44;50.59;96503.66;10348182;28;20410;-72
2023/03/22 09:53:56;;;;;;;4.95;2.30;;;;;;;20.44;50.50;96492.84;10375841;28;20482;-72
2023/03/22 09:59:28;;;;;;;5.00;2.05;;;;;;;20.44;50.71;96488.19;10375510;28;20046;-72
2023/03/22 10:05:00;;;;;;;4.82;2.50;;;;;;;20.45;50.60;96478.19;10390061;28;20053;-72
2023/03/22 10:10:21;;;;;;;7.00;2.30;;;;;;;20.45;50.47;96464.66;10375080;28;20509;-72
2023/03/22 10:15:47;;;;;;;7.13;2.30;;;;;;;20.46;50.51;96466.22;10374852;28;20049;-72
2023/03/22 10:21:08;;;;;;;4.60;2.10;;;;;;;20.45;50.50;96465.44;10360898;28;20120;-72
2023/03/22 10:26:54;;;;;;;3.78;2.10;;;;;;;20.45;50.53;96464.66;10385613;28;20502;-72
2023/03/22 10:32:16;;;;;;;4.07;2.20;;;;;;;20.45;50.62;96457.31;10375532;28;20502;-72
2023/03/22 10:37:37;;;;;;;3.30;2.10;;;;;;;20.45;50.44;96460.03;10388936;28;20038;-72
2023/03/22 10:43:04;;;;;;;4.90;2.00;;;;;;;20.45;50.46;96438.38;10373755;28;20045;-72
2023/03/22 10:48:27;;;;;;;3.25;1.90;;;;;;;20.44;50.65;96436.78;10388396;28;20112;-72
2023/03/22 10:53:49;;;;;;;3.28;1.75;;;;;;;20.45;50.51;96437.59;10360198;28;20085;-72
2023/03/22 10:59:41;;;;;;;3.63;1.85;;;;;;;20.45;50.57;96443.00;10359230;28;20046;-72
2023/03/22 11:05:03;;;;;;;2.67;1.90;;;;;;;20.45;50.40;96443.00;10387961;28;20053;-72
2023/03/22 11:10:28;;;;;;;2.97;2.00;;;;;;;20.46;50.44;96439.94;10359885;28;20045;-72
2023/03/22 11:15:57;;;;;;;4.10;1.90;;;;;;;20.47;50.56;96421.81;10373110;28;20049;-72
2023/03/22 11:21:19;;;;;;;2.88;1.63;;;;;;;20.45;50.40;96416.75;10359011;28;20045;-72
2023/03/22 11:26:40;;;;;;;3.03;1.80;;;;;;;20.47;50.49;96413.69;10354567;28;20065;-72
2023/03/22 11:31:59;;;;;;;3.13;1.80;;;;;;;20.47;50.58;96411.00;10372421;28;20057;-72
2023/03/22 11:37:21;;;;;;;4.35;1.80;;;;;;;20.47;50.59;96405.59;10387223;28;20046;-72
2023/03/22 11:42:41;;;;;;;3.10;1.63;;;;;;;20.47;50.53;96392.84;10345719;28;20041;-72
2023/03/22 11:48:04;;;;;;;2.85;1.73;;;;;;;20.47;50.49;96382.00;10387306;28;20487;-72
2023/03/22 11:53:25;;;;;;;2.92;1.80;;;;;;;20.47;50.58;96379.31;10372019;28;20076;-72
2023/03/22 11:58:58;;;;;;;3.05;1.80;;;;;;;20.47;50.61;96379.31;10386902;28;20042;-72
2023/03/22 12:04:23;;;;;;;4.18;1.48;;;;;;;20.45;50.42;96372.66;10372282;28;20072;-72
2023/03/22 12:09:55;;;;;;;2.50;1.58;;;;;;;20.46;50.49;96374.22;10371782;28;20428;-72
2023/03/22 12:15:20;;;;;;;2.15;1.45;;;;;;;20.44;50.47;96355.63;10393986;28;20041;-72
2023/03/22 12:20:56;;;;;;;3.08;1.90;;;;;;;20.44;50.55;96346.72;10379455;28;20524;-72
2023/03/22 12:26:25;;;;;;;2.33;1.50;;;;;;;20.44;50.58;96333.19;10375944;28;20176;-72
2023/03/22 12:31:55;;;;;;;2.53;1.55;;;;;;;20.43;50.58;96331.63;10351783;28;20049;-72
2023/03/22 12:37:41;;;;;;;2.40;1.40;;;;;;;20.42;50.66;96319.22;10378803;28;20038;-72
2023/03/22 12:43:16;;;;;;;2.03;1.33;;;;;;;20.41;50.65;96307.63;10364893;28;20068;-72
2023/03/22 12:48:40;;;;;;;2.05;1.42;;;;;;;20.42;50.60;96294.88;10378288;28;20042;-72
2023/03/22 12:54:00;;;;;;;3.03;1.60;;;;;;;20.42;50.58;96284.84;10378143;28;20104;-72
2023/03/22 12:59:25;;;;;;;2.85;1.50;;;;;;;20.42;50.55;96294.88;10378193;28;20052;-72
2023/03/22 13:04:51;;;;;;;2.15;1.40;;;;;;;20.41;50.58;96291.38;10363837;28;20380;-72
2023/03/22 13:10:32;;;;;;;1.50;1.27;;;;;;;20.42;50.72;96282.13;10363506;28;20042;-72
2023/03/22 13:16:07;;;;;;;2.00;1.40;;;;;;;20.40;50.54;96276.28;10377185;28;20050;-72
2023/03/22 13:21:29;;;;;;;2.83;1.60;;;;;;;20.41;50.59;96260.84;10376988;28;20096;-72
2023/03/22 13:26:52;;;;;;;2.10;1.25;;;;;;;20.40;50.90;96270.84;10357687;28;20050;-72
2023/03/22 13:32:28;;;;;;;2.15;1.40;;;;;;;20.40;50.78;96256.56;10376888;28;20045;-72
2023/03/22 13:37:49;;;;;;;2.15;1.30;;;;;;;20.39;50.67;96261.19;10362927;28;20436;-72
2023/03/22 13:43:10;;;;;;;1.38;1.10;;;;;;;20.40;50.41;96260.03;10376815;28;20042;-72
2023/03/22 13:48:38;;;;;;;1.90;1.20;;;;;;;20.39;50.58;96253.06;10390738;28;20057;-72
2023/03/22 13:54:07;;;;;;;2.95;1.30;;;;;;;20.40;50.55;96257.34;10375759;28;20237;-72
2023/03/22 13:59:26;;;;;;;1.98;1.30;;;;;;;20.40;50.66;96240.31;10375355;28;20041;-72
2023/03/22 14:04:48;;;;;;;2.67;1.27;;;;;;;20.40;50.67;96248.44;10375200;28;20046;-72
2023/03/22 14:10:24;;;;;;;2.80;1.30;;;;;;;20.40;50.61;96241.09;10361465;28;20045;-72
2023/03/22 14:15:48;;;;;;;1.52;1.20;;;;;;;20.40;50.62;96243.03;10374921;28;20049;-72
2023/03/22 14:21:25;;;;;;;1.83;1.20;;;;;;;20.40;50.84;96229.50;10374642;28;20050;-72
2023/03/22 14:26:53;;;;;;;1.73;1.13;;;;;;;20.40;50.71;96230.28;10370044;28;20046;-72
2023/03/22 14:32:16;;;;;;;1.87;1.27;;;;;;;20.39;50.68;96227.94;10374009;28;20046;-72
2023/03/22 14:37:38;;;;;;;1.30;1.10;;;;;;;20.39;50.73;96234.13;10360137;28;20347;-72
2023/03/22 14:43:34;;;;;;;1.80;1.20;;;;;;;20.39;50.92;96228.72;10388605;28;20034;-72
2023/03/22 14:48:55;;;;;;;1.90;1.20;;;;;;;20.38;50.86;96223.66;10282772;28;20066;-72
2023/03/22 14:54:16;;;;;;;1.25;1.02;;;;;;;20.38;50.80;96221.72;10373441;28;20049;-72
2023/03/22 14:59:36;;;;;;;1.58;1.20;;;;;;;20.39;50.89;96222.53;10359790;28;20037;-72
2023/03/22 15:04:57;;;;;;;1.90;1.30;;;;;;;20.38;50.69;96220.94;10359712;28;20042;-72
2023/03/22 15:10:22;;;;;;;1.67;1.00;;;;;;;20.36;50.77;96210.47;10359309;28;20041;-72
2023/03/22 15:15:43;;;;;;;1.38;1.02;;;;;;;20.36;50.69;96207.75;10345578;28;20056;-72
2023/03/22 15:21:03;;;;;;;1.83;1.10;;;;;;;20.35;50.77;96196.16;10359029;28;20490;-72
2023/03/22 15:26:27;;;;;;;1.30;1.02;;;;;;;20.36;50.72;96194.22;10368936;28;20494;-72
2023/03/22 15:31:47;;;;;;;2.42;1.10;;;;;;;20.34;50.63;96197.28;10372572;28;20108;-72
2023/03/22 15:37:33;;;;;;;1.55;1.08;;;;;;;20.34;50.69;96204.59;10372412;28;20112;-72
2023/03/22 15:43:06;;;;;;;1.67;1.00;;;;;;;20.33;50.79;96206.53;10387509;28;20042;-72
2023/03/22 15:48:28;;;;;;;1.30;1.10;;;;;;;20.34;50.83;96213.50;10377133;28;20490;-72
2023/03/22 15:53:49;;;;;;;1.48;1.10;;;;;;;20.34;50.76;96208.09;10380740;28;20053;-72
2023/03/22 15:59:29;;;;;;;1.30;1.00;;;;;;;20.34;50.93;96215.41;10366664;28;20042;-72
2023/03/22 16:04:54;;;;;;;1.67;0.90;;;;;;;20.34;50.93;96224.31;10394640;28;20041;-72
2023/03/22 16:10:15;;;;;;;0.85;0.80;;;;;;;20.33;50.75;96222.75;10394578;28;20049;-72
2023/03/22 16:15:35;;;;;;;1.30;1.00;;;;;;;20.32;50.91;96221.16;10366071;28;20049;-72
2023/03/22 16:20:55;;;;;;;1.45;1.10;;;;;;;20.31;50.84;96233.13;10379569;28;20049;-72
2023/03/22 16:26:16;;;;;;;1.73;0.80;;;;;;;20.32;50.90;96245.50;10375988;28;20054;-72
2023/03/22 16:31:36;;;;;;;0.73;0.73;;;;;;;20.31;50.86;96243.97;10379566;28;20038;-72
2023/03/22 16:36:56;;;;;;;1.65;1.00;;;;;;;20.30;50.87;96257.81;10378513;28;20402;-72
2023/03/22 16:42:18;;;;;;;1.10;0.95;;;;;;;20.30;50.86;96258.59;10378456;28;20049;-72
2023/03/22 16:47:38;;;;;;;1.38;1.00;;;;;;;20.28;50.76;96265.50;10378429;28;20037;-72
2023/03/22 16:52:58;;;;;;;0.95;0.90;;;;;;;20.28;50.88;96266.25;10377855;28;20046;-72
2023/03/22 16:58:18;;;;;;;0.88;0.88;;;;;;;20.27;50.85;96267.41;10378207;28;20500;-72
2023/03/22 17:03:37;;;;;;;1.33;0.90;;;;;;;20.26;50.76;96270.44;10363934;28;20065;-72
2023/03/22 17:08:58;;;;;;;0.90;0.80;;;;;;;20.25;50.75;96271.59;10377527;28;20045;-72
2023/03/22 17:14:17;;;;;;;1.58;0.95;;;;;;;20.23;50.59;96277.34;10378083;28;20104;-72
2023/03/22 17:19:37;;;;;;;0.80;0.80;;;;;;;20.24;50.75;96275.41;10349782;28;20050;-72
2023/03/22 17:24:59;;;;;;;1.55;1.02;;;;;;;20.23;50.65;96268.41;10375533;28;20042;-72
2023/03/22 17:30:19;;;;;;;0.95;0.90;;;;;;;20.21;50.66;96263.38;10363365;28;20042;-72
2023/03/22 17:35:40;;;;;;;1.20;0.90;;;;;;;20.22;50.68;96261.44;10391209;28;20491;-72
2023/03/22 17:41:00;;;;;;;1.00;0.90;;;;;;;20.21;50.70;96257.16;10377014;28;20050;-75
2023/03/22 17:46:20;;;;;;;0.90;0.90;;;;;;;20.20;50.53;96261.78;10376005;28;20041;-75
2023/03/22 17:51:39;;;;;;;0.65;0.57;;;;;;;20.20;50.56;96264.47;10362340;28;20530;-75
2023/03/22 17:56:58;;;;;;;2.45;0.82;;;;;;;20.18;50.44;96266.75;10362376;28;20049;-75
2023/03/22 18:02:18;;;;;;;1.30;0.80;;;;;;;20.17;50.72;96270.59;10361888;28;20096;-75
2023/03/22 18:07:39;;;;;;;1.63;0.90;;;;;;;20.18;50.94;96277.56;10376494;28;20038;-76
2023/03/22 18:12:59;;;;;;;2.28;0.90;;;;;;;20.18;51.06;96282.97;10375369;28;20046;-76
2023/03/22 18:18:18;;;;;;;1.48;1.00;;;;;;;20.16;51.05;96279.81;10376889;28;20057;-76
2023/03/22 18:23:37;;;;;;;2.47;0.95;;;;;;;20.15;50.92;96275.56;10375178;28;20034;-73
2023/03/22 18:28:58;;;;;;;1.67;0.90;;;;;;;20.15;50.92;96279.03;10378917;28;20050;-74
2023/03/22 18:34:19;;;;;;;2.47;1.00;;;;;;;20.14;50.96;96279.38;10374677;28;20079;-76
2023/03/22 18:39:39;;;;;;;1.38;1.00;;;;;;;20.14;51.04;96277.44;10374349;28;20478;-75
2023/03/22 18:44:58;;;;;;;1.20;1.10;;;;;;;20.13;51.02;96275.06;10346615;28;20433;-75
2023/03/22 18:50:18;;;;;;;1.65;0.90;;;;;;;20.14;51.23;96279.38;10388323;28;20038;-74
2023/03/22 18:55:38;;;;;;;2.83;0.88;;;;;;;20.14;51.26;96284.78;10347135;28;20049;-75
2023/03/22 19:01:02;;;;;;;1.58;0.90;;;;;;;20.13;51.30;96285.91;10373438;28;20037;-75
2023/03/22 19:06:21;;;;;;;2.50;0.90;;;;;;;20.13;51.32;96280.50;10373598;28;20033;-75
2023/03/22 19:11:41;;;;;;;1.35;0.77;;;;;;;20.11;51.15;96288.16;10362826;28;20060;-75
2023/03/22 19:17:01;;;;;;;1.52;1.42;;;;;;;19.91;42.44;96287.94;10373291;28;20053;-76
2023/03/22 19:22:20;;;;;;;2.92;1.48;;;;;;;19.76;43.98;96288.63;10373110;28;20068;-75
2023/03/22 19:27:39;;;;;;;2.00;1.40;;;;;;;19.81;45.52;96301.91;10381454;28;20465;-76
2023/03/22 19:33:00;;;;;;;1.80;1.52;;;;;;;19.87;45.79;96294.38;10359649;28;20049;-77
2023/03/22 19:38:20;;;;;;;1.55;1.45;;;;;;;19.90;45.76;96299.13;10373506;28;20490;-77
2023/03/22 19:43:42;;;;;;;2.42;1.25;;;;;;;19.91;45.95;96290.66;10373468;28;20066;-74
2023/03/22 19:49:02;;;;;;;2.15;1.13;;;;;;;19.94;46.18;96300.78;10360002;28;20483;-73
2023/03/22 19:54:22;;;;;;;1.65;1.10;;;;;;;19.95;46.61;96309.69;10387938;28;20061;-82
2023/03/22 19:59:41;;;;;;;3.03;1.40;;;;;;;19.94;46.71;96305.41;10375388;28;20049;-74
2023/03/22 20:05:01;;;;;;;3.15;1.25;;;;;;;19.94;47.02;96300.78;10372176;28;20038;-74
2023/03/22 20:10:20;;;;;;;1.73;1.27;;;;;;;19.93;47.13;96293.81;10358052;28;20061;-74
2023/03/22 20:15:41;;;;;;;1.30;1.20;;;;;;;19.93;47.37;96301.94;10358019;28;20560;-74
2023/03/22 20:21:02;;;;;;;1.48;1.27;;;;;;;19.93;47.45;96293.81;10357807;28;20100;-74
2023/03/22 20:26:22;;;;;;;1.30;1.10;;;;;;;19.93;47.53;96293.00;10354690;28;20072;-74
2023/03/22 20:31:41;;;;;;;1.45;1.35;;;;;;;19.93;47.59;96301.94;10358136;28;20410;-74
2023/03/22 20:37:02;;;;;;;1.30;1.20;;;;;;;19.92;47.81;96297.63;10365717;28;20041;-74
2023/03/22 20:42:21;;;;;;;1.30;1.20;;;;;;;19.90;47.85;96289.09;10393911;28;20073;-74
2023/03/22 20:47:40;;;;;;;1.75;1.30;;;;;;;19.92;48.22;96296.88;10379200;28;20046;-72
2023/03/22 20:53:00;;;;;;;1.52;1.42;;;;;;;19.91;48.24;96306.88;10382512;28;20117;-74
2023/03/22 20:58:20;;;;;;;1.63;1.48;;;;;;;19.90;48.44;96318.81;10378844;28;20049;-74
2023/03/22 21:03:40;;;;;;;1.63;1.38;;;;;;;19.90;48.44;96318.03;10378157;28;20057;-74
2023/03/22 21:09:00;;;;;;;1.88;1.42;;;;;;;19.90;48.74;96315.34;10364351;28;20046;-73
2023/03/22 21:14:21;;;;;;;1.60;1.38;;;;;;;19.89;48.70;96314.53;10392426;28;20053;-73
2023/03/22 21:19:40;;;;;;;1.85;1.38;;;;;;;19.88;48.88;96312.97;10392210;28;20045;-73
2023/03/22 21:25:00;;;;;;;2.70;1.52;;;;;;;19.89;49.03;96302.94;10391916;28;20046;-73
2023/03/22 21:30:20;;;;;;;2.00;1.30;;;;;;;19.89;49.07;96308.34;10391825;28;20065;-73
2023/03/22 21:35:40;;;;;;;1.70;1.35;;;;;;;19.87;49.19;96305.97;10376556;28;20053;-73
2023/03/22 21:41:01;;;;;;;2.22;1.40;;;;;;;19.89;49.31;96313.75;10350253;28;20449;-75
2023/03/22 21:46:22;;;;;;;2.38;1.30;;;;;;;19.87;49.39;96311.38;10377249;28;20506;-75
2023/03/22 21:51:41;;;;;;;1.70;1.30;;;;;;;19.86;49.45;96309.81;10379656;28;20053;-76
2023/03/22 21:57:01;;;;;;;3.10;1.55;;;;;;;19.86;49.50;96311.72;10377031;28;20495;-75
2023/03/22 22:02:22;;;;;;;2.33;1.50;;;;;;;19.85;49.60;96313.63;10377509;28;20107;-74
2023/03/22 22:07:44;;;;;;;1.65;1.38;;;;;;;19.86;49.68;96309.81;10361870;28;20042;-75
2023/03/22 22:13:04;;;;;;;1.27;1.15;;;;;;;19.84;49.72;96312.06;10375345;28;20050;-75
2023/03/22 22:18:24;;;;;;;2.20;1.38;;;;;;;19.84;49.83;96312.06;10375312;28;20057;-75
2023/03/22 22:23:45;;;;;;;3.05;1.50;;;;;;;19.84;49.41;96312.06;10361252;28;20041;-75
2023/03/22 22:29:05;;;;;;;1.27;1.17;;;;;;;19.84;49.88;96305.88;10364111;28;20414;-75
2023/03/22 22:34:25;;;;;;;1.70;1.33;;;;;;;19.83;50.00;96307.00;10361107;28;20512;-75
2023/03/22 22:39:45;;;;;;;1.20;1.10;;;;;;;19.83;49.89;96307.00;10374044;28;20042;-75
2023/03/22 22:45:06;;;;;;;1.73;1.30;;;;;;;19.82;50.02;96302.72;10388588;28;20046;-75
2023/03/22 22:50:25;;;;;;;1.33;1.17;;;;;;;19.81;50.12;96301.91;10373669;28;20042;-74
2023/03/22 22:55:45;;;;;;;1.73;1.20;;;;;;;19.81;50.17;96307.31;10373955;28;20478;-74
2023/03/22 23:01:08;;;;;;;2.05;1.10;;;;;;;19.81;50.04;96301.91;10373468;28;20046;-75
2023/03/22 23:06:27;;;;;;;1.17;1.08;;;;;;;19.80;50.14;96302.25;10373546;28;20546;-75
2023/03/22 23:11:47;;;;;;;1.27;1.17;;;;;;;19.81;50.42;96295.72;10359411;28;20046;-75
2023/03/22 23:17:07;;;;;;;2.78;1.25;;;;;;;19.79;50.25;96293.34;10373066;28;20050;-75
2023/03/22 23:22:31;;;;;;;1.25;1.15;;;;;;;19.79;50.35;96287.94;10358900;28;20100;-76
2023/03/22 23:27:56;;;;;;;1.30;1.13;;;;;;;19.77;50.41;96276.69;10351860;28;20108;-76
2023/03/22 23:33:16;;;;;;;2.78;1.40;;;;;;;19.76;50.18;96280.53;10359459;28;20053;-76
2023/03/22 23:38:35;;;;;;;1.20;1.10;;;;;;;19.75;49.96;96282.44;10358611;28;20561;-76
2023/03/22 23:43:55;;;;;;;1.35;1.10;;;;;;;19.75;50.25;96277.03;10372620;28;20037;-76
2023/03/22 23:49:14;;;;;;;1.10;1.00;;;;;;;19.74;50.14;96280.88;10358444;28;20049;-76
2023/03/22 23:54:34;;;;;;;1.75;1.13;;;;;;;19.73;50.16;96275.78;10372061;28;20053;-75
2023/03/22 23:59:54;;;;;;;1.80;1.25;;;;;;;19.72;50.25;96279.63;10386736;28;20049;-75
